createdAt,value
2022-07-26T00:00:09.980Z,48714.69
2022-07-26T00:02:36.677Z,48742.13
2022-07-26T00:05:03.515Z,48714.69
2022-07-26T00:07:36.376Z,48753.88
2022-07-26T00:10:05.787Z,48761.72
2022-07-26T00:12:33.689Z,48702.94
2022-07-26T00:15:00.417Z,48722.53
2022-07-26T00:17:27.223Z,48757.78
2022-07-26T00:19:53.671Z,48765.63
2022-07-26T00:22:35.395Z,48714.69
2022-07-26T00:25:04.870Z,48728.41
2022-07-26T00:27:32.297Z,48746.03
2022-07-26T00:29:58.790Z,48730.38
2022-07-26T00:32:25.363Z,48681.41
2022-07-26T00:34:52.497Z,48695.09
2022-07-26T00:37:20.807Z,48714.69
2022-07-26T00:39:47.811Z,48746.03
2022-07-26T00:42:14.587Z,48710.78
2022-07-26T00:44:42.405Z,48734.28
2022-07-26T00:47:09.726Z,48718.59
2022-07-26T00:49:36.256Z,48746.03
2022-07-26T00:52:05.472Z,48742.13
2022-07-26T00:54:32.001Z,48702.94
2022-07-26T00:56:58.579Z,48706.84
2022-07-26T00:59:25.107Z,48742.13
2022-07-26T01:01:51.651Z,48718.59
2022-07-26T01:04:18.119Z,48718.59
2022-07-26T01:06:44.786Z,48710.78
2022-07-26T01:09:11.733Z,48706.84
2022-07-26T01:11:38.172Z,48710.78
2022-07-26T01:14:04.858Z,48691.19
2022-07-26T01:16:31.664Z,48710.78
2022-07-26T01:18:58.142Z,48738.19
2022-07-26T01:21:32.503Z,48710.78
2022-07-26T01:23:59.144Z,48773.47
2022-07-26T01:26:25.658Z,48746.03
2022-07-26T01:28:52.560Z,48728.41
2022-07-26T01:31:19.171Z,48716.66
2022-07-26T01:33:46.212Z,48718.59
2022-07-26T01:36:13.085Z,48706.84
2022-07-26T01:38:41.264Z,48738.19
2022-07-26T01:41:07.841Z,48714.69
2022-07-26T01:43:34.507Z,48710.78
2022-07-26T01:46:01.064Z,48746.03
2022-07-26T01:48:27.864Z,48706.84
2022-07-26T01:50:54.352Z,48687.28
2022-07-26T01:53:20.980Z,48730.38
2022-07-26T01:55:47.423Z,48716.66
2022-07-26T01:58:14.255Z,48716.66
2022-07-26T02:00:40.771Z,48714.69
2022-07-26T02:03:07.445Z,48730.38
2022-07-26T02:05:34.072Z,48726.44
2022-07-26T02:08:00.632Z,48702.94
2022-07-26T02:10:50.386Z,48714.69
2022-07-26T02:13:17.060Z,48702.94
2022-07-26T02:15:43.801Z,48718.59
2022-07-26T02:18:10.525Z,48714.69
2022-07-26T02:20:36.936Z,48708.81
2022-07-26T02:23:04.973Z,48734.28
2022-07-26T02:25:31.696Z,48722.53
2022-07-26T02:27:58.132Z,48699.03
2022-07-26T02:30:24.816Z,48710.78
2022-07-26T02:32:51.242Z,48699.03
2022-07-26T02:35:17.763Z,48726.44
2022-07-26T02:37:44.274Z,48744.06
2022-07-26T02:40:16.880Z,48702.94
2022-07-26T02:42:45.379Z,48699.03
2022-07-26T02:45:11.816Z,48710.78
2022-07-26T02:47:52.126Z,48722.53
2022-07-26T02:50:20.097Z,48667.69
2022-07-26T02:52:48.329Z,48697.06
2022-07-26T02:55:16.340Z,48718.59
2022-07-26T02:57:46.498Z,48722.53
2022-07-26T03:00:15.722Z,48740.16
2022-07-26T03:02:42.380Z,48691.19
2022-07-26T03:05:09.406Z,48710.78
2022-07-26T03:07:36.381Z,48702.94
2022-07-26T03:10:03.930Z,48710.78
2022-07-26T03:12:30.584Z,48742.13
2022-07-26T03:14:57.077Z,48734.28
2022-07-26T03:17:23.567Z,48730.38
2022-07-26T03:19:50.164Z,48718.59
2022-07-26T03:22:16.719Z,48695.09
2022-07-26T03:24:43.173Z,48722.53
2022-07-26T03:27:09.753Z,48710.78
2022-07-26T03:29:36.226Z,48726.44
2022-07-26T03:32:02.685Z,48728.41
2022-07-26T03:34:29.129Z,48706.84
2022-07-26T03:36:55.556Z,48695.09
2022-07-26T03:39:22.013Z,48706.84
2022-07-26T03:41:48.448Z,48730.38
2022-07-26T03:44:14.866Z,48702.94
2022-07-26T03:46:41.307Z,48700.97
2022-07-26T03:49:08.710Z,48679.44
2022-07-26T03:51:37.460Z,48742.13
2022-07-26T03:54:04.014Z,48730.38
2022-07-26T03:56:33.011Z,48695.09
2022-07-26T03:59:10.451Z,48718.59
2022-07-26T04:01:41.931Z,48714.69
2022-07-26T04:04:09.773Z,48738.19
2022-07-26T04:06:37.079Z,48746.03
2022-07-26T04:09:05.411Z,48697.06
2022-07-26T04:11:33.430Z,48718.59
2022-07-26T04:14:00.438Z,48730.38
2022-07-26T04:16:27.454Z,48726.44
2022-07-26T04:18:54.549Z,48718.59
2022-07-26T04:21:21.326Z,48742.13
2022-07-26T04:23:51.281Z,48706.84
2022-07-26T04:26:19.792Z,48722.53
2022-07-26T04:28:46.275Z,48708.81
2022-07-26T04:31:12.901Z,48691.19
2022-07-26T04:33:39.412Z,48738.19
2022-07-26T04:36:06.158Z,48702.94
2022-07-26T04:38:32.620Z,48714.69
2022-07-26T04:40:59.160Z,48726.44
2022-07-26T04:43:25.844Z,48720.56
2022-07-26T04:45:52.647Z,48699.03
2022-07-26T04:48:19.321Z,48718.59
2022-07-26T04:50:45.992Z,48714.69
2022-07-26T04:53:12.467Z,48736.25
2022-07-26T04:55:39.636Z,48722.53
2022-07-26T04:58:06.138Z,48720.56
2022-07-26T05:00:34.417Z,48722.53
2022-07-26T05:03:05.871Z,48738.19
2022-07-26T05:05:33.187Z,48753.88
2022-07-26T05:08:03.661Z,48734.28
2022-07-26T05:10:35.560Z,48734.28
2022-07-26T05:13:04.117Z,48718.59
2022-07-26T05:15:34.985Z,48734.28
2022-07-26T05:18:08.868Z,48726.44
2022-07-26T05:20:37.991Z,48706.84
2022-07-26T05:23:04.678Z,48730.38
2022-07-26T05:25:31.180Z,48742.13
2022-07-26T05:27:57.685Z,48728.41
2022-07-26T05:30:24.242Z,48746.03
2022-07-26T05:32:50.763Z,48742.13
2022-07-26T05:35:17.912Z,48730.38
2022-07-26T05:37:44.368Z,48757.78
2022-07-26T05:40:11.713Z,48710.78
2022-07-26T05:42:38.189Z,48726.44
2022-07-26T05:45:05.854Z,48724.50
2022-07-26T05:47:32.488Z,48730.38
2022-07-26T05:49:59.184Z,48718.59
2022-07-26T05:52:25.852Z,48753.88
2022-07-26T05:54:52.344Z,48738.19
2022-07-26T05:57:19.144Z,48704.91
2022-07-26T05:59:45.586Z,48724.50
2022-07-26T06:02:12.113Z,48710.78
2022-07-26T06:04:38.706Z,48714.69
2022-07-26T06:07:05.396Z,48742.13
2022-07-26T06:09:31.901Z,48761.72
2022-07-26T06:11:58.327Z,48753.88
2022-07-26T06:14:39.836Z,48726.44
2022-07-26T06:17:06.387Z,48734.28
2022-07-26T06:19:33.285Z,48742.13
2022-07-26T06:21:59.895Z,48712.72
2022-07-26T06:24:26.988Z,48726.44
2022-07-26T06:26:58.084Z,48704.91
2022-07-26T06:29:32.364Z,48765.63
2022-07-26T06:31:59.296Z,48753.88
2022-07-26T06:34:25.785Z,48744.06
2022-07-26T06:36:52.529Z,48757.78
2022-07-26T06:39:19.000Z,48714.69
2022-07-26T06:41:45.447Z,48730.38
2022-07-26T06:44:12.076Z,48746.03
2022-07-26T06:46:38.665Z,48738.19
2022-07-26T06:49:05.581Z,48738.19
2022-07-26T06:51:33.690Z,48744.06
2022-07-26T06:54:04.545Z,48761.72
2022-07-26T06:56:32.440Z,48742.13
2022-07-26T06:58:58.869Z,48710.78
2022-07-26T07:01:58.660Z,48746.03
2022-07-26T07:04:12.116Z,48702.94
2022-07-26T07:06:38.719Z,48746.03
2022-07-26T07:09:08.259Z,48753.88
2022-07-26T07:11:35.471Z,48726.44
2022-07-26T07:14:03.222Z,48722.53
2022-07-26T07:16:29.786Z,48753.88
2022-07-26T07:18:56.258Z,48746.03
2022-07-26T07:21:22.659Z,48730.38
2022-07-26T07:23:49.055Z,48769.53
2022-07-26T07:26:16.202Z,48730.38
2022-07-26T07:28:42.633Z,48718.59
2022-07-26T07:31:09.520Z,48724.50
2022-07-26T07:33:36.562Z,48718.59
2022-07-26T07:36:18.920Z,48746.03
2022-07-26T07:38:45.816Z,48742.13
2022-07-26T07:41:12.253Z,48753.88
2022-07-26T07:43:38.681Z,48746.03
2022-07-26T07:46:05.448Z,48700.97
2022-07-26T07:48:32.118Z,48730.38
2022-07-26T07:50:58.542Z,48726.44
2022-07-26T07:53:25.453Z,48738.19
2022-07-26T07:55:55.296Z,48742.13
2022-07-26T07:58:22.013Z,48734.28
2022-07-26T08:00:48.783Z,48726.44
2022-07-26T08:03:18.647Z,48753.88
2022-07-26T08:05:50.022Z,48761.72
2022-07-26T08:08:18.845Z,48757.78
2022-07-26T08:10:51.890Z,48718.59
2022-07-26T08:13:21.355Z,48742.13
2022-07-26T08:15:49.750Z,48757.78
2022-07-26T08:18:16.350Z,48734.28
2022-07-26T08:20:43.252Z,48755.84
2022-07-26T08:23:10.181Z,48761.72
2022-07-26T08:25:42.583Z,48746.03
2022-07-26T08:28:30.790Z,48706.84
2022-07-26T08:30:59.004Z,48757.78
2022-07-26T08:33:25.545Z,48746.03
2022-07-26T08:35:54.856Z,48769.53
2022-07-26T08:38:24.943Z,48724.50
2022-07-26T08:40:51.544Z,48753.88
2022-07-26T08:43:18.520Z,48746.03
2022-07-26T08:45:47.281Z,48781.31
2022-07-26T08:48:18.419Z,48710.78
2022-07-26T08:50:45.423Z,48763.66
2022-07-26T08:53:13.144Z,48773.47
2022-07-26T08:56:05.521Z,48738.19
2022-07-26T08:58:26.552Z,48765.63
2022-07-26T09:01:08.240Z,48777.38
2022-07-26T09:03:38.358Z,48779.34
2022-07-26T09:06:12.899Z,48767.59
2022-07-26T09:08:39.524Z,48742.13
2022-07-26T09:11:35.406Z,48746.03
2022-07-26T09:14:04.912Z,48746.03
2022-07-26T09:16:36.254Z,48777.38
2022-07-26T09:19:21.402Z,48746.03
2022-07-26T09:21:47.976Z,48796.97
2022-07-26T09:24:29.927Z,48746.03
2022-07-26T09:26:59.993Z,48769.53
2022-07-26T09:29:28.531Z,48779.34
2022-07-26T09:32:10.274Z,48763.66
2022-07-26T09:34:36.737Z,48765.63
2022-07-26T09:37:11.361Z,48753.88
2022-07-26T09:39:55.170Z,48773.47
2022-07-26T09:42:29.321Z,48777.38
2022-07-26T09:44:57.515Z,48791.09
2022-07-26T09:47:36.265Z,48777.38
2022-07-26T09:50:14.762Z,48724.50
2022-07-26T09:52:57.128Z,48765.63
2022-07-26T09:55:23.611Z,48773.47
2022-07-26T09:57:52.978Z,48773.47
2022-07-26T10:00:20.001Z,48767.59
2022-07-26T10:02:46.507Z,48763.66
2022-07-26T10:05:13.055Z,48753.88
2022-07-26T10:07:39.720Z,48773.47
2022-07-26T10:10:14.982Z,48785.22
2022-07-26T10:12:46.669Z,48789.13
2022-07-26T10:15:38.235Z,48777.38
2022-07-26T10:18:06.601Z,48793.06
2022-07-26T10:20:45.651Z,48800.88
2022-07-26T10:23:31.735Z,48775.41
2022-07-26T10:26:00.440Z,48820.47
2022-07-26T10:28:30.496Z,48808.72
2022-07-26T10:31:26.538Z,48779.34
2022-07-26T10:33:55.169Z,48816.56
2022-07-26T10:36:24.312Z,48775.41
2022-07-26T10:39:04.806Z,48789.13
2022-07-26T10:41:37.708Z,48816.56
2022-07-26T10:44:23.184Z,48789.13
2022-07-26T10:47:07.604Z,48808.72
2022-07-26T10:49:34.001Z,48798.94
2022-07-26T10:52:27.981Z,48832.22
2022-07-26T10:54:57.707Z,48769.53
2022-07-26T10:57:27.349Z,48796.97
2022-07-26T10:59:57.882Z,48804.81
2022-07-26T11:02:32.290Z,48753.88
2022-07-26T11:05:01.015Z,48793.06
2022-07-26T11:07:28.558Z,48804.81
2022-07-26T11:09:59.559Z,48804.81
2022-07-26T11:12:26.786Z,48796.97
2022-07-26T11:14:54.235Z,48777.38
2022-07-26T11:17:29.164Z,48808.72
2022-07-26T11:19:56.652Z,48781.31
2022-07-26T11:22:34.381Z,48816.56
2022-07-26T11:25:00.964Z,48800.88
2022-07-26T11:27:27.496Z,48773.47
2022-07-26T11:29:54.313Z,48781.31
2022-07-26T11:32:25.087Z,48783.25
2022-07-26T11:35:00.264Z,48761.72
2022-07-26T11:37:26.952Z,48765.63
2022-07-26T11:39:56.792Z,48808.72
2022-07-26T11:42:23.249Z,48793.06
2022-07-26T11:44:50.615Z,48785.22
2022-07-26T11:47:25.447Z,48793.06
2022-07-26T11:50:12.528Z,48746.03
2022-07-26T11:52:38.705Z,48795.00
2022-07-26T11:55:05.901Z,48753.88
2022-07-26T11:57:32.809Z,48789.13
2022-07-26T12:00:00.404Z,48793.06
2022-07-26T12:02:28.611Z,48777.38
2022-07-26T12:05:16.361Z,48798.94
2022-07-26T12:08:00.094Z,48785.22
2022-07-26T12:10:28.175Z,48793.06
2022-07-26T12:13:11.628Z,48793.06
2022-07-26T12:15:52.116Z,48785.22
2022-07-26T12:18:23.656Z,48798.94
2022-07-26T12:21:05.042Z,48812.63
2022-07-26T12:23:49.876Z,48793.06
2022-07-26T12:26:31.018Z,48812.63
2022-07-26T12:28:59.678Z,48757.78
2022-07-26T12:31:31.229Z,48816.56
2022-07-26T12:33:58.604Z,48828.31
2022-07-26T12:36:27.658Z,48834.19
2022-07-26T12:38:56.210Z,48791.09
2022-07-26T12:41:37.173Z,48777.38
2022-07-26T12:44:05.610Z,48800.88
2022-07-26T12:46:34.118Z,48804.81
2022-07-26T12:49:01.184Z,48808.72
2022-07-26T12:51:28.035Z,48800.88
2022-07-26T12:53:54.731Z,48785.22
2022-07-26T12:56:21.609Z,48796.97
2022-07-26T12:58:48.019Z,48777.38
2022-07-26T13:01:14.576Z,48812.63
2022-07-26T13:03:41.055Z,48814.59
2022-07-26T13:06:07.696Z,48769.53
2022-07-26T13:08:34.150Z,48804.81
2022-07-26T13:11:00.709Z,48814.59
2022-07-26T13:13:27.149Z,48796.97
2022-07-26T13:15:53.646Z,48796.97
2022-07-26T13:18:20.099Z,48810.69
2022-07-26T13:20:46.581Z,48810.69
2022-07-26T13:23:15.759Z,48795.00
2022-07-26T13:25:43.130Z,48804.81
2022-07-26T13:28:09.707Z,48820.47
2022-07-26T13:30:38.355Z,48791.09
2022-07-26T13:33:05.160Z,48824.41
2022-07-26T13:35:31.601Z,48810.69
2022-07-26T13:37:58.035Z,48793.06
2022-07-26T13:40:30.686Z,48795.00
2022-07-26T13:42:58.035Z,48832.22
2022-07-26T13:45:24.447Z,48808.72
2022-07-26T13:47:56.026Z,48787.19
2022-07-26T13:50:22.692Z,48806.75
2022-07-26T13:52:49.221Z,48810.69
2022-07-26T13:55:15.748Z,48798.94
2022-07-26T13:57:53.129Z,48806.75
2022-07-26T14:00:24.564Z,48804.81
2022-07-26T14:02:51.118Z,48812.63
2022-07-26T14:05:18.719Z,48789.13
2022-07-26T14:07:45.231Z,48808.72
2022-07-26T14:10:11.817Z,48789.13
2022-07-26T14:12:38.588Z,48802.84
2022-07-26T14:15:11.494Z,48800.88
2022-07-26T14:17:39.753Z,48828.31
2022-07-26T14:20:07.098Z,48777.38
2022-07-26T14:22:33.584Z,48779.34
2022-07-26T14:25:00.037Z,48836.16
2022-07-26T14:27:26.507Z,48816.56
2022-07-26T14:29:52.924Z,48793.06
2022-07-26T14:32:22.258Z,48802.84
2022-07-26T14:34:49.445Z,48798.94
2022-07-26T14:37:44.546Z,48795.00
2022-07-26T14:40:04.694Z,48804.81
2022-07-26T14:42:31.193Z,48785.22
2022-07-26T14:44:57.591Z,48796.97
2022-07-26T14:47:24.069Z,48793.06
2022-07-26T14:49:50.800Z,48808.72
2022-07-26T14:52:17.432Z,48824.41
2022-07-26T14:54:43.926Z,48820.47
2022-07-26T14:57:10.438Z,48814.59
2022-07-26T14:59:36.876Z,48816.56
2022-07-26T15:02:05.878Z,48796.97
2022-07-26T15:04:32.778Z,48836.16
2022-07-26T15:06:59.787Z,48808.72
2022-07-26T15:09:26.211Z,48767.59
2022-07-26T15:11:53.043Z,48789.13
2022-07-26T15:14:19.623Z,48783.25
2022-07-26T15:16:46.252Z,48796.97
2022-07-26T15:19:12.735Z,48812.63
2022-07-26T15:21:39.188Z,48808.72
2022-07-26T15:24:05.829Z,48781.31
2022-07-26T15:26:32.243Z,48771.50
2022-07-26T15:28:58.674Z,48767.59
2022-07-26T15:31:37.154Z,48785.22
2022-07-26T15:34:04.591Z,48765.63
2022-07-26T15:36:31.426Z,48796.97
2022-07-26T15:39:05.223Z,48793.06
2022-07-26T15:41:42.395Z,48800.88
2022-07-26T15:44:10.634Z,48808.72
2022-07-26T15:46:38.975Z,48793.06
2022-07-26T15:49:07.349Z,48793.06
2022-07-26T15:51:34.165Z,48781.31
2022-07-26T15:54:02.409Z,48814.59
2022-07-26T15:56:28.958Z,48804.81
2022-07-26T15:58:55.390Z,48795.00
2022-07-26T16:01:21.962Z,48796.97
2022-07-26T16:03:48.511Z,48775.41
2022-07-26T16:06:15.034Z,48804.81
2022-07-26T16:08:58.837Z,48781.31
2022-07-26T16:11:29.698Z,48804.81
2022-07-26T16:14:00.927Z,48785.22
2022-07-26T16:16:29.673Z,48795.00
2022-07-26T16:18:56.403Z,48808.72
2022-07-26T16:21:22.987Z,48816.56
2022-07-26T16:23:50.854Z,48816.56
2022-07-26T16:26:17.777Z,48810.69
2022-07-26T16:28:44.826Z,48804.81
2022-07-26T16:31:11.385Z,48796.97
2022-07-26T16:33:37.877Z,48806.75
2022-07-26T16:36:12.746Z,48767.59
2022-07-26T16:38:39.201Z,48808.72
2022-07-26T16:41:05.664Z,48800.88
2022-07-26T16:43:32.106Z,48765.63
2022-07-26T16:45:58.558Z,48796.97
2022-07-26T16:48:24.956Z,48793.06
2022-07-26T16:50:51.382Z,48806.75
2022-07-26T16:53:18.232Z,48785.22
2022-07-26T16:55:45.327Z,48777.38
2022-07-26T16:58:11.788Z,48800.88
2022-07-26T17:00:38.312Z,48789.13
2022-07-26T17:03:04.834Z,48783.25
2022-07-26T17:05:31.349Z,48753.88
2022-07-26T17:07:58.264Z,48769.53
2022-07-26T17:10:25.484Z,48793.06
2022-07-26T17:12:52.167Z,48795.00
2022-07-26T17:15:18.759Z,48804.81
2022-07-26T17:17:48.682Z,48796.97
2022-07-26T17:20:17.048Z,48793.06
2022-07-26T17:22:43.568Z,48785.22
2022-07-26T17:25:10.843Z,48781.31
2022-07-26T17:27:37.315Z,48793.06
2022-07-26T17:30:07.088Z,48793.06
2022-07-26T17:32:34.012Z,48812.63
2022-07-26T17:35:00.625Z,48812.63
2022-07-26T17:37:27.090Z,48742.13
2022-07-26T17:39:55.300Z,48793.06
2022-07-26T17:42:24.209Z,48783.25
2022-07-26T17:44:51.192Z,48773.47
2022-07-26T17:47:29.059Z,48785.22
2022-07-26T17:50:08.981Z,48804.81
2022-07-26T17:52:43.950Z,48757.78
2022-07-26T17:55:10.422Z,48753.88
2022-07-26T17:57:36.835Z,48732.31
2022-07-26T18:00:06.746Z,48761.72
2022-07-26T18:02:33.477Z,48793.06
2022-07-26T18:04:59.973Z,48765.63
2022-07-26T18:07:26.426Z,48763.66
2022-07-26T18:09:52.851Z,48746.03
2022-07-26T18:12:19.309Z,48753.88
2022-07-26T18:14:45.731Z,48742.13
2022-07-26T18:17:12.255Z,48771.50
2022-07-26T18:19:38.767Z,48757.78
2022-07-26T18:22:06.264Z,48781.31
2022-07-26T18:24:33.063Z,48757.78
2022-07-26T18:26:59.525Z,48765.63
2022-07-26T18:29:25.983Z,48757.78
2022-07-26T18:31:52.570Z,48746.03
2022-07-26T18:34:19.080Z,48769.53
2022-07-26T18:36:45.636Z,48746.03
2022-07-26T18:39:12.763Z,48742.13
2022-07-26T18:41:39.534Z,48773.47
2022-07-26T18:44:06.007Z,48738.19
2022-07-26T18:46:32.598Z,48742.13
2022-07-26T18:49:00.258Z,48757.78
2022-07-26T18:51:28.791Z,48734.28
2022-07-26T18:53:55.232Z,48753.88
2022-07-26T18:56:21.667Z,48769.53
2022-07-26T18:58:48.126Z,48753.88
2022-07-26T19:01:14.604Z,48775.41
2022-07-26T19:03:41.088Z,48765.63
2022-07-26T19:06:08.659Z,48769.53
2022-07-26T19:08:35.068Z,48757.78
2022-07-26T19:11:01.561Z,48759.75
2022-07-26T19:13:27.964Z,48740.16
2022-07-26T19:15:54.533Z,48781.31
2022-07-26T19:18:20.967Z,48746.03
2022-07-26T19:20:47.390Z,48757.78
2022-07-26T19:23:13.869Z,48775.41
2022-07-26T19:25:40.830Z,48738.19
2022-07-26T19:28:07.541Z,48722.53
2022-07-26T19:30:36.353Z,48761.72
2022-07-26T19:33:02.926Z,48755.84
2022-07-26T19:35:29.672Z,48734.28
2022-07-26T19:37:56.230Z,48710.78
2022-07-26T19:40:22.736Z,48712.72
2022-07-26T19:42:49.209Z,48712.72
2022-07-26T19:45:15.770Z,48773.47
2022-07-26T19:47:42.721Z,48726.44
2022-07-26T19:50:09.637Z,48746.03
2022-07-26T19:52:36.088Z,48724.50
2022-07-26T19:55:03.099Z,48738.19
2022-07-26T19:57:29.578Z,48732.31
2022-07-26T19:59:56.333Z,48718.59
2022-07-26T20:02:23.080Z,48742.13
2022-07-26T20:04:49.695Z,48706.84
2022-07-26T20:07:19.464Z,48734.28
2022-07-26T20:09:50.073Z,48742.13
2022-07-26T20:12:18.253Z,48734.28
2022-07-26T20:14:45.425Z,48722.53
2022-07-26T20:17:13.217Z,48714.69
2022-07-26T20:19:40.517Z,48714.69
2022-07-26T20:22:07.069Z,48704.91
2022-07-26T20:24:33.563Z,48730.38
2022-07-26T20:27:00.026Z,48742.13
2022-07-26T20:29:26.532Z,48730.38
2022-07-26T20:31:52.961Z,48714.69
2022-07-26T20:34:19.508Z,48714.69
2022-07-26T20:36:46.579Z,48693.16
2022-07-26T20:39:13.704Z,48714.69
2022-07-26T20:41:40.585Z,48728.41
2022-07-26T20:44:07.719Z,48722.53
2022-07-26T20:46:39.669Z,48695.09
2022-07-26T20:49:07.129Z,48714.69
2022-07-26T20:51:33.899Z,48718.59
2022-07-26T20:54:00.734Z,48687.28
2022-07-26T20:56:27.745Z,48704.91
2022-07-26T20:58:55.420Z,48732.31
2022-07-26T21:01:21.888Z,48730.38
2022-07-26T21:03:48.370Z,48702.94
2022-07-26T21:06:14.835Z,48673.56
2022-07-26T21:08:41.247Z,48704.91
2022-07-26T21:11:07.679Z,48673.56
2022-07-26T21:13:34.265Z,48732.31
2022-07-26T21:16:00.810Z,48730.38
2022-07-26T21:18:29.780Z,48691.19
2022-07-26T21:20:56.963Z,48708.81
2022-07-26T21:23:23.381Z,48722.53
2022-07-26T21:25:49.903Z,48691.19
2022-07-26T21:28:24.675Z,48706.84
2022-07-26T21:30:51.200Z,48710.78
2022-07-26T21:33:17.654Z,48697.06
2022-07-26T21:35:44.503Z,48687.28
2022-07-26T21:38:11.452Z,48683.34
2022-07-26T21:40:38.184Z,48689.22
2022-07-26T21:43:04.591Z,48718.59
2022-07-26T21:45:31.065Z,48706.84
2022-07-26T21:47:57.580Z,48679.44
2022-07-26T21:50:24.163Z,48706.84
2022-07-26T21:52:50.628Z,48687.28
2022-07-26T21:55:18.067Z,48695.09
2022-07-26T21:57:44.934Z,48687.28
2022-07-26T22:00:14.345Z,48679.44
2022-07-26T22:02:41.093Z,48687.28
2022-07-26T22:05:26.783Z,48691.19
2022-07-26T22:07:53.199Z,48675.50
2022-07-26T22:10:19.696Z,48687.28
2022-07-26T22:12:46.865Z,48714.69
2022-07-26T22:15:13.811Z,48683.34
2022-07-26T22:17:40.420Z,48667.69
2022-07-26T22:20:08.908Z,48679.44
2022-07-26T22:22:36.229Z,48702.94
2022-07-26T22:25:02.897Z,48697.06
2022-07-26T22:27:29.358Z,48695.09
2022-07-26T22:29:55.810Z,48702.94
2022-07-26T22:32:22.409Z,48691.19
2022-07-26T22:34:48.847Z,48687.28
2022-07-26T22:37:15.271Z,48695.09
2022-07-26T22:39:41.697Z,48659.84
2022-07-26T22:42:16.096Z,48679.44
2022-07-26T22:44:43.045Z,48699.03
2022-07-26T22:47:09.598Z,48644.16
2022-07-26T22:49:36.151Z,48693.16
2022-07-26T22:52:02.829Z,48687.28
2022-07-26T22:54:29.364Z,48695.09
2022-07-26T22:56:55.821Z,48673.56
2022-07-26T22:59:22.784Z,48697.06
2022-07-26T23:01:49.253Z,48667.69
2022-07-26T23:04:15.799Z,48687.28
2022-07-26T23:06:43.121Z,48683.34
2022-07-26T23:09:11.681Z,48648.09
2022-07-26T23:11:38.456Z,48663.75
2022-07-26T23:14:04.954Z,48679.44
2022-07-26T23:16:31.601Z,48650.06
2022-07-26T23:18:58.216Z,48671.59
2022-07-26T23:21:24.742Z,48640.25
2022-07-26T23:23:51.153Z,48659.84
2022-07-26T23:26:17.601Z,48679.44
2022-07-26T23:28:44.027Z,48665.72
2022-07-26T23:31:12.149Z,48695.09
2022-07-26T23:33:51.927Z,48652.00
2022-07-26T23:36:24.387Z,48648.09
2022-07-26T23:38:50.983Z,48655.94
2022-07-26T23:41:18.926Z,48671.59
2022-07-26T23:43:45.468Z,48655.94
2022-07-26T23:46:12.024Z,48669.63
2022-07-26T23:51:25.619Z,48620.66
2022-07-26T23:53:52.978Z,48675.50
2022-07-26T23:56:19.588Z,48650.06
2022-07-26T23:58:46.102Z,48675.50
